createdAt,value
2023-02-24T00:00:33.853Z,5.11
2023-02-24T00:03:15.243Z,5.10
2023-02-24T00:05:48.208Z,5.09
2023-02-24T00:08:17.473Z,5.06
2023-02-24T00:10:47.839Z,5.07
2023-02-24T00:13:22.441Z,5.10
2023-02-24T00:16:01.997Z,5.10
2023-02-24T00:18:32.275Z,5.08
2023-02-24T00:21:08.208Z,5.05
2023-02-24T00:23:38.321Z,5.01
2023-02-24T00:26:09.094Z,5.04
2023-02-24T00:28:40.273Z,5.07
2023-02-24T00:31:11.255Z,5.07
2023-02-24T00:33:41.131Z,5.01
2023-02-24T00:36:12.060Z,4.99
2023-02-24T00:38:45.337Z,5.00
2023-02-24T00:41:16.440Z,5.01
2023-02-24T00:43:47.895Z,5.04
2023-02-24T00:46:18.286Z,4.98
2023-02-24T00:48:48.633Z,4.99
2023-02-24T00:51:23.445Z,5.00
2023-02-24T00:53:56.099Z,4.99
2023-02-24T00:56:26.821Z,4.99
2023-02-24T00:58:58.727Z,4.90
2023-02-24T01:01:31.233Z,4.93
2023-02-24T01:04:11.318Z,4.99
2023-02-24T01:06:43.388Z,5.01
2023-02-24T01:09:14.974Z,5.07
2023-02-24T01:12:03.426Z,5.06
2023-02-24T01:14:36.268Z,5.04
2023-02-24T01:17:07.374Z,5.07
2023-02-24T01:19:37.814Z,5.04
2023-02-24T01:22:10.114Z,5.07
2023-02-24T01:24:41.969Z,5.07
2023-02-24T01:27:13.432Z,5.05
2023-02-24T01:29:44.193Z,4.97
2023-02-24T01:32:18.715Z,5.04
2023-02-24T01:34:49.013Z,5.08
2023-02-24T01:37:19.522Z,5.07
2023-02-24T01:39:49.377Z,5.06
2023-02-24T01:42:22.191Z,5.07
2023-02-24T01:45:18.925Z,5.09
2023-02-24T01:47:48.564Z,5.12
2023-02-24T01:50:21.845Z,5.11
2023-02-24T01:52:56.118Z,5.12
2023-02-24T01:55:32.202Z,5.08
2023-02-24T01:58:05.286Z,5.12
2023-02-24T02:00:45.325Z,5.09
2023-02-24T02:03:26.637Z,5.07
2023-02-24T02:06:01.296Z,5.09
2023-02-24T02:08:31.056Z,5.10
2023-02-24T02:11:04.415Z,5.13
2023-02-24T02:13:36.798Z,5.14
2023-02-24T02:16:25.739Z,5.15
2023-02-24T02:19:05.848Z,5.15
2023-02-24T02:21:48.459Z,5.07
2023-02-24T02:24:28.438Z,5.12
2023-02-24T02:27:23.335Z,5.15
2023-02-24T02:30:24.816Z,5.14
2023-02-24T02:33:32.400Z,5.13
2023-02-24T02:36:14.332Z,5.12
2023-02-24T02:38:54.552Z,5.18
2023-02-24T02:41:29.453Z,5.17
2023-02-24T02:44:09.394Z,5.18
2023-02-24T02:46:44.120Z,5.10
2023-02-24T02:49:19.809Z,5.14
2023-02-24T02:51:52.764Z,5.21
2023-02-24T02:54:28.307Z,5.23
2023-02-24T02:57:03.030Z,5.24
2023-02-24T02:59:36.250Z,5.28
2023-02-24T03:02:15.035Z,5.27
2023-02-24T03:04:52.440Z,5.28
2023-02-24T03:07:30.936Z,5.31
2023-02-24T03:10:04.445Z,5.30
2023-02-24T03:12:37.303Z,5.28
2023-02-24T03:15:11.423Z,5.23
2023-02-24T03:17:45.794Z,5.23
2023-02-24T03:20:22.787Z,5.27
2023-02-24T03:23:00.715Z,5.24
2023-02-24T03:25:39.250Z,5.27
2023-02-24T03:28:17.522Z,5.25
2023-02-24T03:30:51.915Z,5.25
2023-02-24T03:33:29.667Z,5.27
2023-02-24T03:36:01.881Z,5.26
2023-02-24T03:38:38.295Z,5.31
2023-02-24T03:41:11.494Z,5.34
2023-02-24T03:43:46.027Z,5.36
2023-02-24T03:46:17.014Z,5.38
2023-02-24T03:48:55.699Z,5.40
2023-02-24T03:51:25.343Z,5.42
2023-02-24T03:54:11.420Z,5.43
2023-02-24T03:56:50.582Z,5.39
2023-02-24T03:59:34.861Z,5.41
2023-02-24T04:02:12.214Z,5.43
2023-02-24T04:04:51.209Z,5.39
2023-02-24T04:07:43.313Z,5.34
2023-02-24T04:10:21.164Z,5.34
2023-02-24T04:12:56.510Z,5.33
2023-02-24T04:15:31.035Z,5.33
2023-02-24T04:18:05.412Z,5.32
2023-02-24T04:20:40.622Z,5.28
2023-02-24T04:23:16.306Z,5.32
2023-02-24T04:25:51.737Z,5.31
2023-02-24T04:28:23.449Z,5.33
2023-02-24T04:30:56.441Z,5.30
2023-02-24T04:33:25.986Z,5.33
2023-02-24T04:35:55.794Z,5.32
2023-02-24T04:38:25.823Z,5.32
2023-02-24T04:40:57.450Z,5.38
2023-02-24T04:43:26.702Z,5.35
2023-02-24T04:45:56.273Z,5.34
2023-02-24T04:48:25.483Z,5.33
2023-02-24T04:50:55.382Z,5.29
2023-02-24T04:53:27.265Z,5.28
2023-02-24T04:55:58.497Z,5.30
2023-02-24T04:58:28.623Z,5.34
2023-02-24T05:00:57.817Z,5.35
2023-02-24T05:03:30.183Z,5.35
2023-02-24T05:06:01.146Z,5.36
2023-02-24T05:08:31.862Z,5.35
2023-02-24T05:11:04.314Z,5.31
2023-02-24T05:13:37.552Z,5.25
2023-02-24T05:16:08.808Z,5.24
2023-02-24T05:18:38.940Z,5.19
2023-02-24T05:21:27.731Z,5.23
2023-02-24T05:23:58.312Z,5.18
2023-02-24T05:26:32.164Z,5.15
2023-02-24T05:29:01.990Z,5.22
2023-02-24T05:31:32.080Z,5.20
2023-02-24T05:34:02.672Z,5.15
2023-02-24T05:36:34.979Z,5.17
2023-02-24T05:39:07.784Z,5.16
2023-02-24T05:41:41.963Z,5.15
2023-02-24T05:44:16.095Z,5.13
2023-02-24T05:46:46.913Z,5.14
2023-02-24T05:49:21.010Z,5.09
2023-02-24T05:51:54.925Z,5.11
2023-02-24T05:54:29.081Z,5.00
2023-02-24T05:57:01.578Z,4.99
2023-02-24T05:59:33.037Z,5.04
2023-02-24T06:02:07.266Z,5.06
2023-02-24T06:04:45.632Z,5.07
2023-02-24T06:07:19.767Z,5.03
2023-02-24T06:09:50.155Z,4.98
2023-02-24T06:12:21.509Z,4.95
2023-02-24T06:14:50.742Z,4.97
2023-02-24T06:17:20.276Z,4.93
2023-02-24T06:19:53.064Z,4.95
2023-02-24T06:22:24.091Z,4.91
2023-02-24T06:24:54.284Z,4.97
2023-02-24T06:27:25.591Z,4.97
2023-02-24T06:29:56.899Z,4.89
2023-02-24T06:32:27.996Z,4.87
2023-02-24T06:34:59.421Z,4.88
2023-02-24T06:37:29.953Z,4.88
2023-02-24T06:39:59.422Z,4.81
2023-02-24T06:42:29.620Z,4.75
2023-02-24T06:44:59.852Z,4.78
2023-02-24T06:47:28.849Z,4.66
2023-02-24T06:49:57.964Z,4.67
2023-02-24T06:52:26.918Z,4.54
2023-02-24T06:54:56.051Z,4.52
2023-02-24T06:57:24.989Z,4.47
2023-02-24T06:59:56.179Z,4.44
2023-02-24T07:02:33.290Z,4.39
2023-02-24T07:05:02.532Z,4.41
2023-02-24T07:07:31.367Z,4.42
2023-02-24T07:10:00.673Z,4.40
2023-02-24T07:12:29.860Z,4.40
2023-02-24T07:15:00.487Z,4.43
2023-02-24T07:17:29.468Z,4.32
2023-02-24T07:20:03.041Z,4.12
2023-02-24T07:22:31.955Z,3.96
2023-02-24T07:25:01.573Z,3.96
2023-02-24T07:27:30.546Z,4.01
2023-02-24T07:30:06.338Z,3.84
2023-02-24T07:32:35.388Z,3.92
2023-02-24T07:35:04.905Z,3.97
2023-02-24T07:37:34.967Z,3.99
2023-02-24T07:40:07.977Z,4.01
2023-02-24T07:42:36.975Z,4.00
2023-02-24T07:45:11.485Z,3.97
2023-02-24T07:47:41.143Z,3.95
2023-02-24T07:50:14.490Z,3.93
2023-02-24T07:52:43.829Z,3.95
2023-02-24T07:55:13.257Z,3.98
2023-02-24T07:57:46.554Z,4.04
2023-02-24T08:00:19.009Z,4.02
2023-02-24T08:02:50.392Z,3.98
2023-02-24T08:05:19.974Z,3.99
2023-02-24T08:07:50.006Z,3.98
2023-02-24T08:10:26.775Z,3.90
2023-02-24T08:13:03.015Z,3.80
2023-02-24T08:15:34.947Z,3.70
2023-02-24T08:18:04.095Z,3.58
2023-02-24T08:20:52.026Z,3.58
2023-02-24T08:23:23.496Z,3.50
2023-02-24T08:25:53.875Z,3.56
2023-02-24T08:28:26.828Z,3.55
2023-02-24T08:30:58.132Z,3.38
2023-02-24T08:33:30.110Z,3.40
2023-02-24T08:36:02.626Z,3.42
2023-02-24T08:38:44.942Z,3.29
2023-02-24T08:41:20.312Z,3.31
2023-02-24T08:43:50.348Z,3.33
2023-02-24T08:46:26.580Z,3.32
2023-02-24T08:48:57.709Z,3.24
2023-02-24T08:51:29.807Z,3.19
2023-02-24T08:54:00.677Z,3.19
2023-02-24T08:56:34.691Z,3.12
2023-02-24T08:59:06.363Z,3.12
2023-02-24T09:01:39.263Z,3.13
2023-02-24T09:04:11.807Z,3.11
2023-02-24T09:06:44.824Z,3.05
2023-02-24T09:09:19.342Z,2.90
2023-02-24T09:11:50.701Z,2.91
2023-02-24T09:14:29.228Z,2.86
2023-02-24T09:17:03.887Z,2.85
2023-02-24T09:20:02.911Z,2.89
2023-02-24T09:22:33.069Z,2.78
2023-02-24T09:25:23.942Z,2.88
2023-02-24T09:27:57.139Z,2.94
2023-02-24T09:30:38.915Z,3.02
2023-02-24T09:33:18.819Z,3.10
2023-02-24T09:35:51.706Z,3.12
2023-02-24T09:38:42.672Z,3.18
2023-02-24T09:41:31.710Z,3.18
2023-02-24T09:44:07.589Z,3.14
2023-02-24T09:46:43.185Z,3.10
2023-02-24T09:49:19.248Z,3.16
2023-02-24T09:51:59.997Z,3.22
2023-02-24T09:54:35.396Z,3.18
2023-02-24T09:57:16.733Z,3.21
2023-02-24T10:00:22.104Z,3.22
2023-02-24T10:03:00.227Z,3.24
2023-02-24T10:05:38.876Z,3.24
2023-02-24T10:08:18.051Z,3.21
2023-02-24T10:11:07.054Z,3.25
2023-02-24T10:13:44.042Z,3.25
2023-02-24T10:16:24.053Z,3.29
2023-02-24T10:19:11.755Z,3.30
2023-02-24T10:22:00.423Z,3.31
2023-02-24T10:24:37.057Z,3.32
2023-02-24T10:27:18.273Z,3.30
2023-02-24T10:30:04.045Z,3.40
2023-02-24T10:32:41.327Z,3.45
2023-02-24T10:35:16.682Z,3.48
2023-02-24T10:37:49.361Z,3.46
2023-02-24T10:40:26.610Z,3.52
2023-02-24T10:43:10.539Z,3.57
2023-02-24T10:45:45.168Z,3.56
2023-02-24T10:48:40.336Z,3.60
2023-02-24T10:51:19.987Z,3.63
2023-02-24T10:54:10.238Z,3.66
2023-02-24T10:56:44.671Z,3.68
2023-02-24T10:59:36.516Z,3.66
2023-02-24T11:02:24.804Z,3.68
2023-02-24T11:05:04.617Z,3.71
2023-02-24T11:07:44.180Z,3.73
2023-02-24T11:10:26.139Z,3.72
2023-02-24T11:13:14.686Z,3.72
2023-02-24T11:16:04.221Z,3.75
2023-02-24T11:18:33.886Z,3.77
2023-02-24T11:21:05.599Z,3.79
2023-02-24T11:23:39.213Z,3.71
2023-02-24T11:26:17.813Z,3.79
2023-02-24T11:29:10.948Z,3.82
2023-02-24T11:31:54.326Z,3.86
2023-02-24T11:34:33.004Z,3.93
2023-02-24T11:37:16.110Z,3.92
2023-02-24T11:39:54.329Z,3.94
2023-02-24T11:42:29.181Z,3.97
2023-02-24T11:45:03.639Z,4.00
2023-02-24T11:47:39.734Z,4.04
2023-02-24T11:50:43.768Z,4.01
2023-02-24T11:53:26.266Z,4.04
2023-02-24T11:56:01.837Z,4.01
2023-02-24T11:58:40.044Z,4.05
2023-02-24T12:01:16.055Z,4.07
2023-02-24T12:03:53.786Z,4.06
2023-02-24T12:06:30.760Z,4.06
2023-02-24T12:09:07.872Z,4.04
2023-02-24T12:11:46.330Z,4.01
2023-02-24T12:14:23.907Z,4.04
2023-02-24T12:17:01.113Z,4.05
2023-02-24T12:19:37.225Z,4.03
2023-02-24T12:22:14.455Z,4.01
2023-02-24T12:24:49.921Z,4.00
2023-02-24T12:27:33.051Z,4.02
2023-02-24T12:30:34.118Z,4.07
2023-02-24T12:33:16.163Z,4.08
2023-02-24T12:35:52.841Z,4.12
2023-02-24T12:38:48.122Z,4.08
2023-02-24T12:41:39.063Z,4.06
2023-02-24T12:44:20.138Z,4.04
2023-02-24T12:47:00.004Z,4.03
2023-02-24T12:49:42.768Z,4.04
2023-02-24T12:52:21.474Z,4.06
2023-02-24T12:54:56.094Z,4.03
2023-02-24T12:57:37.177Z,4.01
2023-02-24T13:00:12.494Z,4.00
2023-02-24T13:02:55.125Z,4.03
2023-02-24T13:05:31.038Z,4.05
2023-02-24T13:08:19.522Z,4.04
2023-02-24T13:10:56.568Z,4.12
2023-02-24T13:13:32.649Z,4.17
2023-02-24T13:16:01.912Z,4.16
2023-02-24T13:18:34.765Z,4.17
2023-02-24T13:21:10.433Z,4.19
2023-02-24T13:23:43.871Z,4.23
2023-02-24T13:26:12.820Z,4.21
2023-02-24T13:28:41.974Z,4.23
2023-02-24T13:31:14.046Z,4.25
2023-02-24T13:33:45.874Z,4.26
2023-02-24T13:36:20.596Z,4.24
2023-02-24T13:38:51.842Z,4.23
2023-02-24T13:41:24.945Z,4.23
2023-02-24T13:43:57.944Z,4.25
2023-02-24T13:46:29.452Z,4.28
2023-02-24T13:49:25.009Z,4.28
2023-02-24T13:52:03.850Z,4.26
2023-02-24T13:55:05.008Z,4.25
2023-02-24T13:58:01.589Z,4.18
2023-02-24T14:00:41.476Z,4.13
2023-02-24T14:03:13.993Z,4.17
2023-02-24T14:05:44.790Z,4.17
2023-02-24T14:08:22.673Z,4.14
2023-02-24T14:10:56.872Z,4.14
2023-02-24T14:13:29.910Z,4.09
2023-02-24T14:16:02.033Z,4.06
2023-02-24T14:18:31.839Z,4.09
2023-02-24T14:21:02.384Z,4.13
2023-02-24T14:23:32.200Z,4.09
2023-02-24T14:26:03.661Z,4.11
2023-02-24T14:28:35.162Z,4.13
2023-02-24T14:31:08.801Z,4.12
2023-02-24T14:33:39.946Z,4.07
2023-02-24T14:36:18.464Z,4.03
2023-02-24T14:38:47.575Z,4.02
2023-02-24T14:41:23.276Z,3.97
2023-02-24T14:43:53.078Z,4.00
2023-02-24T14:46:22.535Z,4.01
2023-02-24T14:48:56.121Z,4.03
2023-02-24T14:51:31.936Z,4.02
2023-02-24T14:54:07.884Z,4.01
2023-02-24T14:56:37.968Z,3.95
2023-02-24T14:59:13.436Z,3.94
2023-02-24T15:01:45.725Z,3.89
2023-02-24T15:04:17.328Z,3.90
2023-02-24T15:06:49.116Z,3.87
2023-02-24T15:09:23.716Z,3.84
2023-02-24T15:11:56.181Z,3.83
2023-02-24T15:14:29.297Z,3.84
2023-02-24T15:17:02.681Z,3.86
2023-02-24T15:19:37.101Z,3.84
2023-02-24T15:22:21.300Z,3.77
2023-02-24T15:24:51.077Z,3.72
2023-02-24T15:27:30.490Z,3.67
2023-02-24T15:30:02.322Z,3.66
2023-02-24T15:32:34.661Z,3.70
2023-02-24T15:35:04.506Z,3.71
2023-02-24T15:37:43.119Z,3.69
2023-02-24T15:40:21.744Z,3.69
2023-02-24T15:42:53.110Z,3.70
2023-02-24T15:45:30.708Z,3.67
2023-02-24T15:48:01.873Z,3.67
2023-02-24T15:50:32.914Z,3.67
2023-02-24T15:53:08.863Z,3.67
2023-02-24T15:55:37.941Z,3.69
2023-02-24T15:58:07.104Z,3.66
2023-02-24T16:00:36.024Z,3.67
2023-02-24T16:03:05.300Z,3.64
2023-02-24T16:05:34.265Z,3.61
2023-02-24T16:08:05.320Z,3.63
2023-02-24T16:10:34.256Z,3.64
2023-02-24T16:13:04.202Z,3.61
2023-02-24T16:18:32.250Z,3.61
2023-02-24T16:21:02.188Z,3.62
2023-02-24T16:23:38.710Z,3.62
2023-02-24T16:26:08.276Z,3.60
2023-02-24T16:28:37.592Z,3.60
2023-02-24T16:31:07.380Z,3.58
2023-02-24T16:33:53.329Z,3.58
2023-02-24T16:36:25.488Z,3.57
2023-02-24T16:38:56.385Z,3.55
2023-02-24T16:41:25.410Z,3.52
2023-02-24T16:43:54.599Z,3.50
2023-02-24T16:46:24.875Z,3.51
2023-02-24T16:48:55.059Z,3.52
2023-02-24T16:51:24.110Z,3.55
2023-02-24T16:53:53.243Z,3.54
2023-02-24T16:56:24.008Z,3.54
2023-02-24T16:58:53.399Z,3.58
2023-02-24T17:01:23.099Z,3.57
2023-02-24T17:03:54.881Z,3.55
2023-02-24T17:06:25.013Z,3.55
2023-02-24T17:08:54.552Z,3.48
2023-02-24T17:11:28.339Z,3.47
2023-02-24T17:13:57.571Z,3.45
2023-02-24T17:16:26.558Z,3.49
2023-02-24T17:18:55.865Z,3.48
2023-02-24T17:21:25.376Z,3.51
2023-02-24T17:23:54.575Z,3.50
2023-02-24T17:26:25.118Z,3.48
2023-02-24T17:28:54.334Z,3.47
2023-02-24T17:31:23.482Z,3.48
2023-02-24T17:33:52.805Z,3.47
2023-02-24T17:36:21.947Z,3.47
2023-02-24T17:38:51.272Z,3.44
2023-02-24T17:41:20.154Z,3.43
2023-02-24T17:43:52.049Z,3.41
2023-02-24T17:46:21.629Z,3.44
2023-02-24T17:48:51.077Z,3.37
2023-02-24T17:51:22.449Z,3.35
2023-02-24T17:53:51.647Z,3.36
2023-02-24T17:56:20.814Z,3.30
2023-02-24T17:58:51.997Z,3.27
2023-02-24T18:01:20.902Z,3.31
2023-02-24T18:03:50.042Z,3.33
2023-02-24T18:06:19.084Z,3.32
2023-02-24T18:08:48.212Z,3.30
2023-02-24T18:11:18.840Z,3.32
2023-02-24T18:13:50.875Z,3.27
2023-02-24T18:16:21.901Z,3.28
2023-02-24T18:18:51.904Z,3.23
2023-02-24T18:21:20.784Z,3.24
2023-02-24T18:23:50.240Z,3.25
2023-02-24T18:26:20.257Z,3.24
2023-02-24T18:28:52.900Z,3.19
2023-02-24T18:31:25.808Z,3.19
2023-02-24T18:33:56.338Z,3.19
2023-02-24T18:36:25.682Z,3.23
2023-02-24T18:38:57.177Z,3.17
2023-02-24T18:41:26.668Z,3.16
2023-02-24T18:43:59.208Z,3.14
2023-02-24T18:46:29.777Z,3.11
2023-02-24T18:48:59.105Z,3.13
2023-02-24T18:51:29.076Z,3.12
2023-02-24T18:53:58.978Z,3.09
2023-02-24T18:56:31.049Z,3.05
2023-02-24T18:59:01.573Z,3.09
2023-02-24T19:01:33.485Z,3.10
2023-02-24T19:04:04.622Z,3.12
2023-02-24T19:06:35.133Z,3.10
2023-02-24T19:09:09.707Z,3.04
2023-02-24T19:11:39.919Z,3.06
2023-02-24T19:14:12.005Z,3.03
2023-02-24T19:16:42.897Z,3.04
2023-02-24T19:19:14.708Z,3.00
2023-02-24T19:21:45.473Z,3.01
2023-02-24T19:24:14.981Z,2.99
2023-02-24T19:26:45.851Z,2.93
2023-02-24T19:29:16.381Z,2.97
2023-02-24T19:31:47.337Z,2.91
2023-02-24T19:34:16.800Z,2.88
2023-02-24T19:36:45.625Z,2.93
2023-02-24T19:39:17.445Z,2.96
2023-02-24T19:41:49.208Z,2.99
2023-02-24T19:44:19.097Z,3.02
2023-02-24T19:46:49.610Z,2.99
2023-02-24T19:49:19.343Z,2.96
2023-02-24T19:51:48.614Z,2.95
2023-02-24T19:54:17.959Z,2.91
2023-02-24T19:56:47.362Z,2.91
2023-02-24T19:59:17.179Z,2.86
2023-02-24T20:01:46.619Z,2.84
2023-02-24T20:04:17.262Z,2.84
2023-02-24T20:06:46.353Z,2.85
2023-02-24T20:09:17.417Z,2.80
2023-02-24T20:11:47.932Z,2.79
2023-02-24T20:14:19.872Z,2.77
2023-02-24T20:16:49.669Z,2.80
2023-02-24T20:19:20.348Z,2.76
2023-02-24T20:21:50.065Z,2.78
2023-02-24T20:24:20.338Z,2.76
2023-02-24T20:26:51.095Z,2.77
2023-02-24T20:29:22.168Z,2.76
2023-02-24T20:31:51.756Z,2.76
2023-02-24T20:34:22.558Z,2.76
2023-02-24T20:36:51.520Z,2.77
2023-02-24T20:39:24.792Z,2.73
2023-02-24T20:41:55.095Z,2.78
2023-02-24T20:44:24.631Z,2.75
2023-02-24T20:46:53.539Z,2.76
2023-02-24T20:49:24.589Z,2.81
2023-02-24T20:51:53.627Z,2.81
2023-02-24T20:54:23.936Z,2.79
2023-02-24T20:56:52.913Z,2.80
2023-02-24T20:59:23.008Z,2.81
2023-02-24T21:01:52.366Z,2.81
2023-02-24T21:04:23.965Z,2.84
2023-02-24T21:06:54.313Z,2.89
2023-02-24T21:09:23.596Z,2.84
2023-02-24T21:11:52.483Z,2.87
2023-02-24T21:14:22.960Z,2.86
2023-02-24T21:16:51.942Z,2.88
2023-02-24T21:19:21.077Z,2.86
2023-02-24T21:21:51.362Z,2.89
2023-02-24T21:24:21.114Z,2.91
2023-02-24T21:26:49.893Z,2.85
2023-02-24T21:29:19.265Z,2.84
2023-02-24T21:31:49.805Z,2.85
2023-02-24T21:34:19.243Z,2.89
2023-02-24T21:36:48.137Z,2.81
2023-02-24T21:39:18.850Z,2.88
2023-02-24T21:41:47.970Z,2.86
2023-02-24T21:44:17.094Z,2.90
2023-02-24T21:46:46.086Z,2.92
2023-02-24T21:49:15.331Z,2.93
2023-02-24T21:51:44.178Z,2.93
2023-02-24T21:54:14.378Z,2.94
2023-02-24T21:56:44.706Z,2.95
2023-02-24T21:59:14.096Z,2.91
2023-02-24T22:01:45.453Z,2.90
2023-02-24T22:04:18.021Z,2.92
2023-02-24T22:06:47.101Z,2.93
2023-02-24T22:09:19.760Z,2.95
2023-02-24T22:11:50.982Z,2.94
2023-02-24T22:14:21.324Z,2.96
2023-02-24T22:16:50.726Z,2.95
2023-02-24T22:19:20.172Z,2.97
2023-02-24T22:21:49.086Z,2.99
2023-02-24T22:24:19.178Z,2.94
2023-02-24T22:26:51.149Z,2.95
2023-02-24T22:29:20.890Z,2.94
2023-02-24T22:31:50.137Z,2.94
2023-02-24T22:34:19.380Z,2.91
2023-02-24T22:36:48.193Z,2.90
2023-02-24T22:39:17.488Z,2.92
2023-02-24T22:41:47.524Z,2.88
2023-02-24T22:44:19.507Z,2.87
2023-02-24T22:46:49.400Z,2.86
2023-02-24T22:49:18.833Z,2.86
2023-02-24T22:51:47.694Z,2.84
2023-02-24T22:54:17.336Z,2.80
2023-02-24T22:56:46.254Z,2.83
2023-02-24T22:59:15.852Z,2.84
2023-02-24T23:01:46.135Z,2.84
2023-02-24T23:04:18.092Z,2.82
2023-02-24T23:06:48.023Z,2.82
2023-02-24T23:09:19.908Z,2.81
2023-02-24T23:11:49.648Z,2.79
2023-02-24T23:14:18.955Z,2.79
2023-02-24T23:16:55.663Z,2.79
2023-02-24T23:19:25.662Z,2.81
2023-02-24T23:21:56.480Z,2.81
2023-02-24T23:24:25.732Z,2.79
2023-02-24T23:26:57.665Z,2.77
2023-02-24T23:29:28.079Z,2.80
2023-02-24T23:31:59.017Z,2.82
2023-02-24T23:34:28.596Z,2.80
2023-02-24T23:36:57.456Z,2.79
2023-02-24T23:39:26.658Z,2.81
2023-02-24T23:41:57.584Z,2.81
2023-02-24T23:44:27.075Z,2.84
2023-02-24T23:46:58.523Z,2.86
2023-02-24T23:49:39.170Z,2.85
2023-02-24T23:52:15.181Z,2.86
2023-02-24T23:54:44.819Z,2.85
2023-02-24T23:57:13.768Z,2.85
2023-02-24T23:59:42.882Z,2.88
